createdAt,value
2018-06-27T00:01:11.988Z,5.87
2018-06-27T00:03:40.618Z,5.47
2018-06-27T00:06:09.311Z,4.40
2018-06-27T00:08:37.934Z,5.40
2018-06-27T00:11:06.627Z,4.97
2018-06-27T00:13:35.240Z,4.80
2018-06-27T00:16:03.928Z,5.60
2018-06-27T00:18:32.617Z,5.97
2018-06-27T00:21:01.231Z,5.30
2018-06-27T00:23:29.835Z,4.83
2018-06-27T00:25:58.544Z,4.90
2018-06-27T00:28:27.209Z,5.23
2018-06-27T00:30:55.859Z,4.70
2018-06-27T00:33:24.649Z,4.60
2018-06-27T00:35:53.283Z,4.90
2018-06-27T00:38:21.938Z,4.93
2018-06-27T00:40:50.583Z,5.00
2018-06-27T00:43:19.276Z,5.10
2018-06-27T00:45:47.916Z,6.53
2018-06-27T00:48:16.592Z,4.93
2018-06-27T00:50:45.258Z,5.43
2018-06-27T00:53:13.898Z,4.60
2018-06-27T00:55:42.631Z,5.57
2018-06-27T00:58:11.276Z,5.47
2018-06-27T01:00:40.071Z,6.03
2018-06-27T01:03:08.727Z,5.03
2018-06-27T01:05:37.374Z,5.27
2018-06-27T01:08:06.012Z,5.30
2018-06-27T01:10:34.732Z,4.57
2018-06-27T01:13:03.355Z,4.70
2018-06-27T01:15:31.994Z,4.80
2018-06-27T01:18:00.576Z,4.90
2018-06-27T01:20:29.206Z,5.60
2018-06-27T01:22:57.868Z,5.67
2018-06-27T01:25:26.529Z,5.23
2018-06-27T01:27:55.164Z,4.73
2018-06-27T01:30:23.823Z,5.17
2018-06-27T01:32:52.512Z,5.53
2018-06-27T01:35:21.153Z,5.00
2018-06-27T01:37:49.782Z,5.40
2018-06-27T01:40:18.478Z,5.30
2018-06-27T01:42:47.121Z,5.77
2018-06-27T01:45:15.766Z,5.73
2018-06-27T01:47:44.439Z,5.40
2018-06-27T01:50:13.028Z,6.30
2018-06-27T01:52:41.626Z,5.77
2018-06-27T01:55:10.230Z,6.10
2018-06-27T01:57:38.906Z,5.90
2018-06-27T02:00:08.043Z,6.30
2018-06-27T02:02:36.687Z,6.33
2018-06-27T02:05:05.322Z,5.70
2018-06-27T02:07:33.987Z,5.70
2018-06-27T02:10:02.571Z,5.83
2018-06-27T02:12:31.194Z,6.27
2018-06-27T02:14:59.819Z,6.17
2018-06-27T02:17:28.494Z,5.97
2018-06-27T02:19:57.167Z,6.30
2018-06-27T02:22:25.823Z,5.87
2018-06-27T02:24:55.086Z,5.60
2018-06-27T02:27:23.823Z,5.43
2018-06-27T02:29:52.540Z,5.33
2018-06-27T02:32:21.334Z,5.37
2018-06-27T02:34:49.939Z,5.20
2018-06-27T02:37:18.654Z,4.63
2018-06-27T02:39:47.249Z,4.70
2018-06-27T02:42:15.946Z,5.10
2018-06-27T02:44:44.584Z,4.70
2018-06-27T02:47:13.224Z,4.30
2018-06-27T02:49:41.865Z,5.10
2018-06-27T02:52:10.538Z,4.67
2018-06-27T02:54:39.191Z,4.53
2018-06-27T02:57:07.859Z,4.53
2018-06-27T02:59:36.468Z,4.57
2018-06-27T03:02:05.083Z,4.67
2018-06-27T03:04:33.730Z,3.93
2018-06-27T03:07:02.383Z,4.50
2018-06-27T03:09:31.003Z,4.93
2018-06-27T03:11:59.701Z,5.30
2018-06-27T03:14:28.304Z,5.07
2018-06-27T03:16:57.052Z,5.30
2018-06-27T03:19:25.679Z,6.00
2018-06-27T03:21:54.318Z,4.53
2018-06-27T03:24:22.980Z,5.60
2018-06-27T03:26:51.596Z,4.60
2018-06-27T03:29:20.246Z,5.33
2018-06-27T03:31:48.895Z,4.67
2018-06-27T03:34:17.524Z,4.50
2018-06-27T03:36:46.190Z,4.30
2018-06-27T03:39:14.976Z,3.83
2018-06-27T03:41:43.653Z,4.30
2018-06-27T03:44:12.315Z,4.23
2018-06-27T03:46:40.935Z,4.77
2018-06-27T03:49:09.603Z,5.23
2018-06-27T03:51:38.288Z,5.03
2018-06-27T03:54:06.907Z,5.27
2018-06-27T03:56:35.539Z,5.10
2018-06-27T03:59:04.301Z,4.77
2018-06-27T04:01:32.935Z,4.47
2018-06-27T04:04:01.669Z,4.63
2018-06-27T04:06:30.328Z,5.07
2018-06-27T04:08:58.997Z,4.10
2018-06-27T04:11:27.680Z,4.57
2018-06-27T04:13:56.537Z,3.60
2018-06-27T04:16:25.180Z,4.70
2018-06-27T04:18:54.603Z,3.70
2018-06-27T04:21:23.308Z,4.63
2018-06-27T04:23:51.948Z,4.33
2018-06-27T04:26:20.656Z,4.17
2018-06-27T04:28:49.283Z,4.50
2018-06-27T04:31:17.948Z,3.80
2018-06-27T04:33:46.648Z,4.20
2018-06-27T04:36:15.444Z,4.43
2018-06-27T04:38:44.004Z,4.63
2018-06-27T04:41:12.664Z,4.60
2018-06-27T04:43:41.351Z,5.17
2018-06-27T04:46:10.035Z,3.57
2018-06-27T04:48:38.724Z,4.07
2018-06-27T04:51:07.476Z,3.43
2018-06-27T04:53:36.162Z,3.50
2018-06-27T04:56:04.925Z,3.47
2018-06-27T04:58:33.912Z,3.20
2018-06-27T05:01:02.557Z,3.50
2018-06-27T05:03:31.163Z,2.90
2018-06-27T05:05:59.815Z,3.60
2018-06-27T05:08:28.484Z,3.80
2018-06-27T05:10:57.194Z,4.07
2018-06-27T05:13:25.840Z,3.80
2018-06-27T05:15:54.589Z,3.80
2018-06-27T05:18:23.365Z,3.47
2018-06-27T05:20:52.004Z,4.33
2018-06-27T05:23:20.666Z,3.50
2018-06-27T05:25:49.315Z,4.10
2018-06-27T05:28:18.018Z,4.53
2018-06-27T05:30:46.671Z,4.30
2018-06-27T05:33:15.318Z,4.63
2018-06-27T05:35:43.975Z,4.53
2018-06-27T05:38:12.612Z,4.20
2018-06-27T05:40:41.258Z,3.60
2018-06-27T05:43:09.943Z,4.73
2018-06-27T05:45:38.616Z,4.50
2018-06-27T05:48:07.367Z,4.00
2018-06-27T05:50:36.929Z,3.53
2018-06-27T05:53:05.683Z,5.00
2018-06-27T05:55:34.363Z,4.03
2018-06-27T05:58:03.378Z,3.53
2018-06-27T06:00:31.982Z,3.90
2018-06-27T06:03:00.683Z,4.27
2018-06-27T06:05:29.371Z,3.50
2018-06-27T06:07:58.184Z,3.67
2018-06-27T06:10:26.943Z,3.70
2018-06-27T06:12:55.651Z,3.13
2018-06-27T06:15:24.293Z,3.40
2018-06-27T06:17:52.975Z,3.00
2018-06-27T06:20:21.696Z,3.30
2018-06-27T06:22:50.374Z,3.10
2018-06-27T06:25:19.064Z,2.20
2018-06-27T06:27:47.775Z,3.10
2018-06-27T06:30:16.735Z,2.53
2018-06-27T06:32:45.431Z,2.80
2018-06-27T06:35:14.188Z,3.17
2018-06-27T06:37:42.914Z,2.90
2018-06-27T06:40:11.611Z,2.70
2018-06-27T06:42:40.271Z,3.03
2018-06-27T06:45:09.190Z,2.70
2018-06-27T06:47:37.871Z,2.60
2018-06-27T06:50:07.716Z,2.33
2018-06-27T06:52:36.395Z,3.00
2018-06-27T06:55:05.706Z,2.93
2018-06-27T06:57:34.802Z,2.63
2018-06-27T07:00:03.587Z,3.07
2018-06-27T07:02:32.860Z,2.10
2018-06-27T07:05:01.630Z,2.67
2018-06-27T07:07:30.261Z,4.30
2018-06-27T07:09:58.941Z,3.10
2018-06-27T07:12:27.703Z,2.47
2018-06-27T07:14:56.429Z,2.57
2018-06-27T07:17:25.082Z,3.60
2018-06-27T07:19:53.761Z,2.33
2018-06-27T07:22:22.469Z,1.93
2018-06-27T07:24:51.240Z,2.37
2018-06-27T07:27:19.931Z,2.30
2018-06-27T07:29:48.612Z,3.00
2018-06-27T07:32:17.286Z,2.10
2018-06-27T07:34:45.953Z,2.17
2018-06-27T07:37:14.622Z,1.90
2018-06-27T07:39:43.304Z,2.40
2018-06-27T07:42:12.725Z,2.27
2018-06-27T07:44:41.443Z,2.03
2018-06-27T07:47:10.135Z,1.73
2018-06-27T07:49:38.919Z,2.17
2018-06-27T07:52:07.911Z,2.00
2018-06-27T07:54:41.675Z,2.03
2018-06-27T07:57:13.891Z,2.17
2018-06-27T07:59:42.697Z,2.00
2018-06-27T08:02:11.747Z,2.00
2018-06-27T08:04:40.561Z,2.33
2018-06-27T08:07:09.635Z,2.10
2018-06-27T08:09:38.925Z,1.50
2018-06-27T08:12:07.679Z,1.87
2018-06-27T08:14:36.334Z,1.87
2018-06-27T08:17:05.036Z,1.77
2018-06-27T08:19:33.808Z,2.10
2018-06-27T08:22:02.469Z,2.00
2018-06-27T08:24:31.198Z,2.57
2018-06-27T08:26:59.916Z,2.20
2018-06-27T08:29:28.535Z,7.97
2018-06-27T08:31:57.213Z,5.43
2018-06-27T08:34:26.090Z,2.80
2018-06-27T08:36:54.891Z,1.83
2018-06-27T08:39:23.579Z,1.83
2018-06-27T08:41:52.264Z,1.57
2018-06-27T08:44:21.052Z,1.80
2018-06-27T08:46:49.707Z,1.83
2018-06-27T08:49:18.370Z,1.83
2018-06-27T08:51:47.084Z,1.50
2018-06-27T08:54:15.754Z,2.80
2018-06-27T08:56:44.626Z,2.17
2018-06-27T08:59:13.276Z,1.77
2018-06-27T09:01:42.051Z,1.50
2018-06-27T09:04:10.864Z,1.50
2018-06-27T09:06:39.535Z,1.57
2018-06-27T09:09:09.911Z,1.57
2018-06-27T09:11:39.209Z,1.40
2018-06-27T09:14:07.896Z,1.70
2018-06-27T09:16:36.723Z,9.93
2018-06-27T09:19:05.579Z,1.67
2018-06-27T09:21:34.207Z,1.30
2018-06-27T09:24:02.907Z,1.20
2018-06-27T09:26:31.573Z,1.60
2018-06-27T09:29:00.280Z,1.60
2018-06-27T09:31:28.965Z,1.00
2018-06-27T09:33:57.643Z,1.47
2018-06-27T09:36:26.307Z,1.37
2018-06-27T09:38:55.391Z,1.27
2018-06-27T09:41:24.542Z,1.30
2018-06-27T09:43:53.209Z,1.50
2018-06-27T09:46:21.902Z,1.10
2018-06-27T09:48:50.531Z,1.40
2018-06-27T09:51:19.382Z,1.33
2018-06-27T09:53:48.020Z,1.70
2018-06-27T09:56:16.734Z,1.63
2018-06-27T09:58:45.354Z,1.60
2018-06-27T10:01:14.031Z,1.40
2018-06-27T10:03:42.780Z,1.17
2018-06-27T10:06:12.077Z,1.20
2018-06-27T10:08:40.775Z,1.53
2018-06-27T10:11:09.537Z,1.20
2018-06-27T10:13:38.232Z,1.00
2018-06-27T10:16:06.948Z,1.47
2018-06-27T10:18:35.823Z,1.23
2018-06-27T10:21:04.571Z,1.30
2018-06-27T10:23:33.312Z,1.47
2018-06-27T10:26:02.092Z,1.00
2018-06-27T10:28:33.487Z,1.40
2018-06-27T10:31:02.124Z,1.10
2018-06-27T10:33:30.966Z,1.27
2018-06-27T10:35:59.677Z,1.50
2018-06-27T10:38:28.360Z,1.47
2018-06-27T10:40:57.029Z,1.30
2018-06-27T10:43:25.798Z,1.20
2018-06-27T10:45:54.585Z,1.97
2018-06-27T10:48:23.340Z,1.40
2018-06-27T10:50:52.031Z,1.33
2018-06-27T10:53:20.772Z,1.00
2018-06-27T10:55:49.486Z,1.10
2018-06-27T10:58:18.144Z,1.57
2018-06-27T11:00:46.874Z,1.20
2018-06-27T11:03:15.600Z,1.40
2018-06-27T11:05:44.436Z,1.53
2018-06-27T11:08:13.138Z,1.43
2018-06-27T11:10:41.809Z,1.37
2018-06-27T11:13:10.575Z,1.40
2018-06-27T11:15:39.367Z,0.97
2018-06-27T11:18:08.050Z,1.60
2018-06-27T11:20:36.762Z,1.53
2018-06-27T11:23:05.490Z,1.93
2018-06-27T11:25:34.483Z,1.63
2018-06-27T11:28:03.509Z,1.73
2018-06-27T11:30:33.291Z,1.37
2018-06-27T11:33:02.354Z,1.10
2018-06-27T11:35:31.266Z,1.30
2018-06-27T11:38:00.602Z,1.40
2018-06-27T11:40:29.943Z,1.30
2018-06-27T11:42:59.270Z,1.20
2018-06-27T11:45:28.380Z,1.57
2018-06-27T11:47:57.598Z,1.73
2018-06-27T11:50:26.412Z,1.50
2018-06-27T11:52:55.867Z,1.40
2018-06-27T11:55:25.484Z,1.30
2018-06-27T11:57:55.184Z,1.37
2018-06-27T12:00:23.946Z,1.47
2018-06-27T12:02:53.020Z,1.40
2018-06-27T12:05:21.835Z,1.47
2018-06-27T12:07:51.664Z,1.30
2018-06-27T12:10:21.992Z,1.30
2018-06-27T12:12:50.835Z,1.80
2018-06-27T12:15:20.061Z,1.60
2018-06-27T12:17:48.912Z,1.50
2018-06-27T12:20:17.758Z,1.30
2018-06-27T12:22:46.558Z,1.67
2018-06-27T12:25:15.370Z,1.03
2018-06-27T12:27:44.848Z,1.47
2018-06-27T12:30:17.909Z,1.60
2018-06-27T12:32:47.237Z,1.37
2018-06-27T12:35:16.133Z,1.30
2018-06-27T12:37:45.671Z,1.13
2018-06-27T12:40:16.046Z,1.13
2018-06-27T12:42:47.248Z,1.57
2018-06-27T12:45:17.319Z,1.30
2018-06-27T12:47:46.118Z,1.20
2018-06-27T12:50:15.012Z,1.30
2018-06-27T12:52:44.050Z,1.10
2018-06-27T12:55:14.811Z,1.60
2018-06-27T12:57:44.536Z,1.30
2018-06-27T13:00:13.541Z,1.90
2018-06-27T13:02:42.480Z,1.53
2018-06-27T13:05:11.940Z,1.10
2018-06-27T13:07:41.983Z,1.80
2018-06-27T13:10:11.041Z,1.17
2018-06-27T13:12:39.803Z,1.40
2018-06-27T13:15:10.649Z,1.20
2018-06-27T13:17:39.320Z,6.93
2018-06-27T13:20:08.572Z,8.07
2018-06-27T13:22:37.353Z,7.07
2018-06-27T13:25:06.273Z,6.37
2018-06-27T13:27:34.993Z,9.60
2018-06-27T13:30:04.563Z,19.77
2018-06-27T13:32:34.885Z,21.33
2018-06-27T13:35:03.691Z,11.70
2018-06-27T13:37:32.399Z,18.97
2018-06-27T13:40:01.070Z,11.00
2018-06-27T13:42:29.758Z,5.30
2018-06-27T13:44:58.577Z,3.60
2018-06-27T13:47:28.427Z,9.67
2018-06-27T13:49:57.178Z,3.00
2018-06-27T13:52:25.847Z,3.70
2018-06-27T13:54:56.688Z,5.57
2018-06-27T13:57:26.753Z,2.70
2018-06-27T13:59:55.926Z,2.70
2018-06-27T14:02:24.611Z,3.30
2018-06-27T14:04:53.300Z,1.67
2018-06-27T14:07:22.068Z,2.60
2018-06-27T14:09:50.767Z,4.53
2018-06-27T14:12:19.738Z,4.20
2018-06-27T14:14:48.449Z,16.37
2018-06-27T14:17:17.120Z,2.37
2018-06-27T14:19:45.824Z,3.90
2018-06-27T14:22:14.533Z,7.13
2018-06-27T14:24:43.659Z,6.03
2018-06-27T14:27:12.353Z,21.00
2018-06-27T14:29:41.003Z,35.47
2018-06-27T14:32:09.745Z,2.87
2018-06-27T14:34:38.405Z,12.70
2018-06-27T14:37:07.096Z,3.10
2018-06-27T14:39:35.799Z,7.10
2018-06-27T14:42:05.505Z,5.90
2018-06-27T14:44:34.583Z,1.80
2018-06-27T14:47:04.037Z,1.27
2018-06-27T14:49:33.176Z,2.00
2018-06-27T14:52:02.413Z,2.37
2018-06-27T14:54:31.621Z,1.20
2018-06-27T14:57:00.374Z,3.40
2018-06-27T14:59:29.164Z,2.00
2018-06-27T15:01:57.760Z,1.40
2018-06-27T15:04:26.492Z,1.63
2018-06-27T15:06:55.235Z,1.40
2018-06-27T15:09:24.932Z,0.83
2018-06-27T15:11:53.754Z,1.30
2018-06-27T15:14:22.831Z,1.07
2018-06-27T15:16:52.177Z,1.07
2018-06-27T15:19:20.776Z,1.10
2018-06-27T15:21:49.500Z,1.67
2018-06-27T15:24:18.426Z,1.77
2018-06-27T15:26:47.086Z,1.13
2018-06-27T15:29:15.800Z,1.20
2018-06-27T15:31:44.496Z,1.30
2018-06-27T15:34:14.098Z,1.30
2018-06-27T15:36:43.056Z,1.13
2018-06-27T15:39:11.992Z,0.90
2018-06-27T15:41:41.136Z,1.10
2018-06-27T15:44:09.825Z,1.20
2018-06-27T15:46:38.492Z,4.33
2018-06-27T15:49:09.026Z,1.67
2018-06-27T15:51:38.246Z,1.50
2018-06-27T15:54:06.975Z,1.33
2018-06-27T15:56:35.851Z,1.23
2018-06-27T15:59:04.711Z,1.13
2018-06-27T16:01:33.636Z,1.00
2018-06-27T16:04:02.956Z,1.30
2018-06-27T16:06:31.663Z,0.90
2018-06-27T16:09:00.345Z,1.20
2018-06-27T16:11:29.167Z,1.63
2018-06-27T16:13:57.932Z,1.30
2018-06-27T16:16:27.789Z,1.10
2018-06-27T16:18:56.450Z,0.90
2018-06-27T16:21:25.154Z,1.13
2018-06-27T16:23:54.029Z,1.50
2018-06-27T16:26:23.340Z,1.30
2018-06-27T16:28:52.117Z,1.40
2018-06-27T16:31:20.804Z,1.40
2018-06-27T16:33:49.493Z,1.30
2018-06-27T16:36:18.180Z,1.30
2018-06-27T16:38:47.196Z,1.10
2018-06-27T16:41:15.858Z,1.40
2018-06-27T16:43:45.537Z,1.47
2018-06-27T16:46:14.326Z,1.20
2018-06-27T16:48:42.955Z,1.10
2018-06-27T16:51:11.830Z,1.47
2018-06-27T16:53:40.746Z,1.00
2018-06-27T16:56:09.454Z,1.50
2018-06-27T16:58:39.667Z,1.20
2018-06-27T17:01:08.493Z,1.73
2018-06-27T17:03:37.127Z,1.53
2018-06-27T17:06:05.876Z,1.27
2018-06-27T17:08:34.777Z,1.43
2018-06-27T17:11:04.068Z,0.87
2018-06-27T17:13:32.843Z,1.20
2018-06-27T17:16:01.508Z,0.83
2018-06-27T17:18:31.001Z,1.10
2018-06-27T17:21:00.058Z,1.10
2018-06-27T17:23:29.689Z,1.10
2018-06-27T17:25:58.469Z,0.63
2018-06-27T17:28:28.278Z,1.73
2018-06-27T17:30:56.924Z,1.00
2018-06-27T17:33:25.700Z,1.20
2018-06-27T17:35:54.351Z,1.27
2018-06-27T17:38:23.056Z,0.80
2018-06-27T17:40:52.308Z,0.80
2018-06-27T17:43:21.015Z,0.80
2018-06-27T17:45:50.072Z,1.10
2018-06-27T17:48:19.155Z,1.00
2018-06-27T17:50:47.824Z,1.00
2018-06-27T17:53:16.496Z,1.10
2018-06-27T17:55:45.171Z,1.30
2018-06-27T17:58:14.345Z,16.77
2018-06-27T18:00:44.539Z,39.30
2018-06-27T18:03:13.229Z,18.13
2018-06-27T18:05:41.992Z,16.80
2018-06-27T18:08:10.833Z,14.90
2018-06-27T18:10:40.674Z,19.90
2018-06-27T18:13:09.496Z,29.53
2018-06-27T18:15:38.175Z,49.57
2018-06-27T18:18:06.937Z,16.03
2018-06-27T18:20:36.200Z,9.90
2018-06-27T18:23:04.980Z,12.93
2018-06-27T18:25:33.836Z,6.83
2018-06-27T18:28:03.160Z,7.80
2018-06-27T18:30:32.294Z,21.90
2018-06-27T18:33:01.849Z,9.07
2018-06-27T18:35:30.611Z,2.60
2018-06-27T18:37:59.334Z,2.40
2018-06-27T18:40:28.092Z,9.40
2018-06-27T18:42:56.968Z,2.50
2018-06-27T18:45:25.699Z,5.07
2018-06-27T18:47:54.515Z,3.43
2018-06-27T18:50:23.239Z,9.90
2018-06-27T18:52:51.944Z,26.47
2018-06-27T18:55:20.764Z,51.17
2018-06-27T18:57:49.843Z,16.60
2018-06-27T19:00:18.577Z,29.87
2018-06-27T19:02:47.596Z,13.23
2018-06-27T19:05:16.282Z,16.47
2018-06-27T19:07:45.125Z,19.23
2018-06-27T19:10:14.006Z,33.13
2018-06-27T19:12:42.761Z,6.07
2018-06-27T19:15:11.561Z,7.53
2018-06-27T19:17:40.754Z,7.50
2018-06-27T19:20:09.778Z,7.80
2018-06-27T19:22:38.692Z,2.83
2018-06-27T19:25:07.831Z,3.20
2018-06-27T19:27:36.535Z,2.10
2018-06-27T19:30:05.689Z,3.20
2018-06-27T19:32:35.155Z,1.50
2018-06-27T19:35:03.888Z,1.80
2018-06-27T19:37:32.750Z,2.10
2018-06-27T19:40:01.537Z,2.17
2018-06-27T19:42:30.342Z,1.60
2018-06-27T19:44:59.085Z,1.93
2018-06-27T19:47:27.895Z,1.63
2018-06-27T19:49:56.620Z,2.10
2018-06-27T19:52:26.927Z,2.10
2018-06-27T19:54:55.653Z,1.50
2018-06-27T19:57:24.516Z,1.40
2018-06-27T19:59:53.261Z,2.10
2018-06-27T20:02:22.262Z,2.10
2018-06-27T20:04:51.018Z,1.93
2018-06-27T20:07:20.683Z,2.13
2018-06-27T20:09:49.374Z,2.20
2018-06-27T20:12:18.064Z,2.20
2018-06-27T20:14:46.780Z,2.30
2018-06-27T20:17:15.421Z,2.27
2018-06-27T20:19:44.441Z,2.23
2018-06-27T20:22:13.140Z,1.57
2018-06-27T20:24:41.817Z,1.77
2018-06-27T20:27:10.644Z,2.00
2018-06-27T20:29:40.024Z,2.17
2018-06-27T20:32:08.821Z,1.67
2018-06-27T20:34:37.877Z,1.70
2018-06-27T20:37:06.513Z,1.80
2018-06-27T20:39:35.168Z,2.63
2018-06-27T20:42:03.988Z,2.00
2018-06-27T20:44:32.739Z,1.80
2018-06-27T20:47:01.571Z,2.20
2018-06-27T20:49:30.489Z,1.57
2018-06-27T20:51:59.244Z,1.77
2018-06-27T20:54:27.957Z,1.77
2018-06-27T20:56:56.882Z,1.70
2018-06-27T20:59:25.587Z,1.83
2018-06-27T21:01:54.288Z,1.80
2018-06-27T21:04:24.050Z,1.93
2018-06-27T21:06:52.872Z,1.97
2018-06-27T21:09:21.575Z,2.50
2018-06-27T21:11:50.281Z,2.20
2018-06-27T21:14:19.589Z,1.80
2018-06-27T21:16:48.319Z,2.00
2018-06-27T21:19:17.142Z,1.70
2018-06-27T21:21:45.947Z,2.40
2018-06-27T21:24:15.297Z,2.17
2018-06-27T21:26:43.983Z,2.03
2018-06-27T21:29:13.097Z,15.17
2018-06-27T21:31:42.607Z,26.07
2018-06-27T21:34:11.353Z,70.60
2018-06-27T21:36:40.142Z,91.73
2018-06-27T21:39:09.231Z,49.37
2018-06-27T21:41:38.141Z,80.60
2018-06-27T21:44:07.267Z,129.73
2018-06-27T21:46:36.118Z,48.67
2018-06-27T21:49:04.975Z,89.83
2018-06-27T21:51:34.472Z,44.63
2018-06-27T21:54:03.935Z,19.07
2018-06-27T21:56:32.656Z,10.90
2018-06-27T21:59:01.339Z,14.43
2018-06-27T22:01:30.076Z,9.57
2018-06-27T22:03:59.320Z,7.97
2018-06-27T22:06:28.056Z,7.40
2018-06-27T22:08:56.723Z,5.23
2018-06-27T22:11:25.584Z,4.10
2018-06-27T22:13:54.322Z,3.70
2018-06-27T22:16:23.061Z,4.27
2018-06-27T22:18:51.751Z,3.07
2018-06-27T22:21:20.470Z,3.13
2018-06-27T22:23:49.709Z,4.00
2018-06-27T22:26:18.475Z,3.40
2018-06-27T22:28:47.143Z,3.63
2018-06-27T22:31:15.857Z,2.90
2018-06-27T22:33:44.709Z,3.17
2018-06-27T22:36:13.432Z,3.73
2018-06-27T22:38:42.372Z,2.93
2018-06-27T22:41:11.500Z,3.70
2018-06-27T22:43:40.152Z,3.00
2018-06-27T22:46:08.865Z,3.20
2018-06-27T22:48:37.583Z,3.10
2018-06-27T22:51:06.232Z,2.80
2018-06-27T22:53:34.894Z,2.73
2018-06-27T22:56:03.638Z,3.70
2018-06-27T22:58:32.341Z,2.67
2018-06-27T23:01:01.032Z,3.00
2018-06-27T23:03:29.719Z,3.00
2018-06-27T23:05:58.578Z,3.50
2018-06-27T23:08:27.258Z,3.13
2018-06-27T23:10:55.922Z,3.30
2018-06-27T23:13:24.590Z,3.33
2018-06-27T23:15:53.228Z,3.40
2018-06-27T23:18:22.590Z,3.60
2018-06-27T23:20:51.259Z,3.00
2018-06-27T23:23:20.082Z,3.40
2018-06-27T23:25:48.774Z,3.80
2018-06-27T23:28:17.424Z,3.00
2018-06-27T23:30:46.116Z,3.33
2018-06-27T23:33:14.817Z,3.50
2018-06-27T23:35:44.031Z,3.60
2018-06-27T23:38:14.167Z,3.50
2018-06-27T23:40:42.932Z,4.10
2018-06-27T23:43:11.639Z,3.60
2018-06-27T23:45:40.352Z,3.67
2018-06-27T23:48:09.059Z,4.60
2018-06-27T23:50:37.943Z,3.63
2018-06-27T23:53:06.593Z,3.90
2018-06-27T23:55:35.252Z,3.83
2018-06-27T23:58:03.936Z,3.87
